Time;durP1;ratioP1;P1;durP2;ratioP2;P2;SDS_P1;SDS_P2;PMS_P1;PMS_P2;Temp;Humidity;BMP_temperature;BMP_pressure;BME280_temperature;BME280_humidity;BME280_pressure;Samples;Min_cycle;Max_cycle;Signal;HPM_P1;HPM_P2
2022/02/06 00:02:29;;;;;;;4.90;1.63;;;;;;;4.92;68.55;100475.56;5067111;28;20040;-74
2022/02/06 00:04:55;;;;;;;7.55;2.25;;;;;;;4.98;68.10;100452.16;5070775;28;20044;-73
2022/02/06 00:07:21;;;;;;;5.38;1.80;;;;;;;4.84;69.18;100466.72;5070552;28;20094;-74
2022/02/06 00:09:47;;;;;;;5.13;1.88;;;;;;;4.87;69.63;100460.66;5070866;28;20040;-74
2022/02/06 00:12:13;;;;;;;5.25;1.70;;;;;;;4.80;70.14;100452.75;5066784;28;20066;-74
2022/02/06 00:14:39;;;;;;;6.65;1.73;;;;;;;4.60;72.16;100483.78;5070314;28;20559;-74
2022/02/06 00:17:05;;;;;;;6.50;1.75;;;;;;;4.48;73.44;100443.47;5070873;28;20036;-74
2022/02/06 00:19:31;;;;;;;5.22;1.50;;;;;;;4.47;73.18;100439.09;5070291;28;20051;-74
2022/02/06 00:21:56;;;;;;;7.95;1.67;;;;;;;4.48;72.80;100433.00;5070476;28;20051;-74
2022/02/06 00:24:32;;;;;;;6.47;2.10;;;;;;;4.46;72.81;100429.53;5070511;28;20044;-73
2022/02/06 00:27:05;;;;;;;5.88;1.90;;;;;;;4.52;72.03;100421.78;5066685;28;20071;-74
2022/02/06 00:29:43;;;;;;;5.28;1.60;;;;;;;4.54;72.04;100414.84;5066541;28;20123;-74
2022/02/06 00:32:19;;;;;;;4.35;1.70;;;;;;;4.60;71.05;100422.78;5070781;28;20044;-73
2022/02/06 00:35:16;;;;;;;5.40;1.95;;;;;;;4.58;70.81;100411.41;5070457;28;20048;-73
2022/02/06 00:40:18;;;;;;;8.73;2.00;;;;;;;4.67;70.51;100405.47;5068575;28;20062;-73
2022/02/06 00:42:44;;;;;;;4.45;1.67;;;;;;;4.72;70.78;100409.91;5053580;28;20033;-73
2022/02/06 00:45:09;;;;;;;4.78;1.83;;;;;;;4.75;70.79;100399.50;5070287;28;20123;-73
2022/02/06 00:47:36;;;;;;;6.47;2.00;;;;;;;4.67;70.75;100380.19;5050636;28;20112;-74
2022/02/06 00:50:02;;;;;;;6.57;1.98;;;;;;;4.66;71.06;100393.22;5052339;28;20039;-73
2022/02/06 00:52:35;;;;;;;8.52;1.75;;;;;;;4.65;71.76;100384.50;5066964;28;20492;-74
2022/02/06 00:55:00;;;;;;;4.55;1.45;;;;;;;4.65;71.78;100381.91;5067058;28;20044;-73
2022/02/06 00:57:27;;;;;;;5.05;1.80;;;;;;;4.63;71.75;100378.38;5066488;28;20043;-73
2022/02/06 00:59:52;;;;;;;5.35;1.50;;;;;;;4.64;72.05;100369.69;5070255;28;20032;-73
2022/02/06 01:02:17;;;;;;;5.68;1.70;;;;;;;4.63;72.53;100353.97;5066496;28;20033;-73
2022/02/06 01:04:43;;;;;;;4.85;1.83;;;;;;;4.58;72.79;100364.34;5069958;28;20044;-74
2022/02/06 01:07:08;;;;;;;6.03;1.50;;;;;;;4.65;72.87;100355.75;5070107;28;20044;-74
2022/02/06 01:09:33;;;;;;;5.65;1.80;;;;;;;4.66;73.10;100352.28;5053150;28;20028;-75
2022/02/06 01:11:59;;;;;;;6.65;2.15;;;;;;;4.59;72.75;100345.22;5056166;28;20040;-76
2022/02/06 01:17:23;;;;;;;6.22;1.40;;;;;;;4.59;73.83;100332.16;5073665;28;20123;-74
2022/02/06 01:19:59;;;;;;;8.13;1.92;;;;;;;4.51;74.25;100318.09;5072142;28;20127;-73
2022/02/06 01:22:27;;;;;;;9.00;1.80;;;;;;;4.49;74.26;100322.41;5067056;28;20037;-74
2022/02/06 01:25:02;;;;;;;7.00;1.50;;;;;;;4.56;74.73;100311.22;5089092;28;20047;-74
2022/02/06 01:27:39;;;;;;;6.97;1.65;;;;;;;4.50;74.93;100309.34;5069546;28;20496;-74
2022/02/06 01:30:16;;;;;;;8.18;1.75;;;;;;;4.46;76.09;100306.69;5073702;28;20036;-74
2022/02/06 01:32:50;;;;;;;6.85;1.63;;;;;;;4.46;76.44;100317.16;5070792;28;20070;-74
2022/02/06 01:35:20;;;;;;;6.95;2.65;;;;;;;4.37;76.20;100308.28;5072815;28;20106;-74
2022/02/06 01:38:01;;;;;;;6.68;1.65;;;;;;;4.38;76.71;100299.63;5053435;28;20058;-74
2022/02/06 01:43:17;;;;;;;6.45;1.77;;;;;;;4.35;77.55;100290.84;5072870;28;20396;-74
2022/02/06 02:10:17;;;;;;;4.22;1.60;;;;;;;4.26;79.35;100241.94;5070143;28;20043;-74
2022/02/06 02:20:51;;;;;;;7.18;1.70;;;;;;;4.23;80.39;100215.78;5068456;28;20039;-74
2022/02/06 02:29:15;;;;;;;6.57;1.85;;;;;;;4.15;81.29;100193.91;5072321;28;20411;-74
2022/02/06 02:42:56;;;;;;;5.60;1.75;;;;;;;4.09;82.05;100170.31;5071956;28;20043;-75
2022/02/06 02:45:11;;;;;;;8.30;2.00;;;;;;;3.99;82.84;100163.19;5070660;28;20047;-74
2022/02/06 02:47:39;;;;;;;6.68;1.40;;;;;;;4.10;82.68;100157.25;5070173;28;20036;-75
2022/02/06 02:50:12;;;;;;;12.00;1.90;;;;;;;4.10;83.24;100156.38;5071655;28;20055;-75
2022/02/06 02:55:30;;;;;;;5.55;1.63;;;;;;;4.14;83.12;100137.31;5067962;28;20047;-74
2022/02/06 02:58:17;;;;;;;5.30;1.52;;;;;;;4.13;83.06;100139.00;5068132;28;20037;-74
2022/02/06 03:03:30;;;;;;;9.55;2.10;;;;;;;4.05;84.66;100116.28;5070100;28;20059;-74
2022/02/06 03:05:57;;;;;;;7.43;2.22;;;;;;;4.05;85.07;100114.53;5071478;28;20033;-74
2022/02/06 03:08:23;;;;;;;7.50;1.92;;;;;;;4.01;85.59;100099.69;5071432;28;20048;-73
2022/02/06 03:10:51;;;;;;;6.53;2.00;;;;;;;4.13;85.74;100083.28;5071599;28;20056;-74
2022/02/06 03:13:19;;;;;;;7.10;2.22;;;;;;;4.10;85.39;100093.72;5071700;28;20039;-74
2022/02/06 03:15:49;;;;;;;10.73;2.05;;;;;;;4.13;85.79;100080.69;5067644;28;20028;-74
2022/02/06 03:18:20;;;;;;;11.70;2.78;;;;;;;4.11;85.86;100077.16;5060734;28;20048;-74
2022/02/06 03:20:46;;;;;;;7.95;2.10;;;;;;;4.06;85.80;100074.53;5053667;28;20028;-74
2022/02/06 03:23:14;;;;;;;5.90;1.88;;;;;;;4.05;85.69;100066.66;5071210;28;20112;-74
2022/02/06 03:25:50;;;;;;;8.88;2.17;;;;;;;4.18;85.33;100065.94;5071030;28;20483;-74
2022/02/06 03:28:16;;;;;;;5.78;1.40;;;;;;;4.15;85.26;100055.47;5070537;28;20036;-74
2022/02/06 03:30:41;;;;;;;10.45;2.08;;;;;;;4.22;85.27;100046.84;5071258;28;20032;-74
2022/02/06 03:33:08;;;;;;;6.82;1.95;;;;;;;4.25;85.00;100057.34;5070843;28;20032;-74
2022/02/06 03:35:33;;;;;;;8.02;1.70;;;;;;;4.27;84.55;100026.00;5070496;28;20447;-74
2022/02/06 03:37:59;;;;;;;8.43;1.98;;;;;;;4.32;83.99;100030.44;5070801;28;20043;-74
2022/02/06 03:40:27;;;;;;;8.27;2.53;;;;;;;4.32;84.07;100035.66;5071238;28;20033;-74
2022/02/06 03:45:33;;;;;;;11.95;1.85;;;;;;;4.39;83.80;100013.94;5070976;28;20032;-75
2022/02/06 03:48:10;;;;;;;4.20;1.48;;;;;;;4.41;82.89;100000.03;5071172;28;20042;-74
2022/02/06 03:50:36;;;;;;;8.25;1.73;;;;;;;4.46;83.14;100003.56;5067478;28;20496;-74
2022/02/06 03:53:01;;;;;;;8.75;1.80;;;;;;;4.51;82.74;100013.22;5053025;28;20071;-74
2022/02/06 03:55:29;;;;;;;6.60;1.75;;;;;;;4.61;82.09;99986.31;5070633;28;20044;-74
2022/02/06 03:57:54;;;;;;;7.38;1.65;;;;;;;4.67;81.54;99977.63;5067173;28;20036;-74
2022/02/06 04:00:23;;;;;;;6.90;1.67;;;;;;;4.74;81.41;99979.44;5071019;28;20396;-74
2022/02/06 04:02:49;;;;;;;6.43;1.92;;;;;;;4.73;81.43;99977.69;5070987;28;20079;-74
2022/02/06 04:05:14;;;;;;;5.78;1.90;;;;;;;4.81;80.60;100002.16;5070644;28;20056;-74
2022/02/06 04:07:41;;;;;;;4.80;1.52;;;;;;;4.86;80.70;99973.44;5070618;28;20549;-74
2022/02/06 04:10:09;;;;;;;9.02;1.55;;;;;;;4.91;80.33;99963.00;5070829;28;20053;-74
2022/02/06 04:12:38;;;;;;;13.05;2.22;;;;;;;4.97;78.81;99960.44;5063718;28;20052;-74
2022/02/06 04:15:07;;;;;;;8.43;1.30;;;;;;;5.02;79.15;99956.97;5052386;28;20130;-74
2022/02/06 04:17:43;;;;;;;6.32;2.22;;;;;;;5.01;78.64;99952.63;5047010;28;20039;-74
2022/02/06 04:20:09;;;;;;;5.55;1.40;;;;;;;5.06;78.70;99944.81;5070783;28;20033;-74
2022/02/06 04:22:34;;;;;;;7.18;1.40;;;;;;;5.08;78.76;99948.31;5070666;28;20033;-74
2022/02/06 04:24:59;;;;;;;7.28;1.63;;;;;;;5.05;78.51;99938.69;5070495;28;20036;-74
2022/02/06 04:27:25;;;;;;;8.07;1.65;;;;;;;5.13;78.95;99930.91;5066835;28;20063;-75
2022/02/06 04:29:51;;;;;;;5.13;1.30;;;;;;;5.12;78.12;99923.06;5070717;28;20067;-74
2022/02/06 04:32:17;;;;;;;7.65;1.52;;;;;;;5.08;78.57;99926.50;5070715;28;20037;-74
2022/02/06 04:34:42;;;;;;;6.40;1.25;;;;;;;5.19;78.18;99937.94;5066633;28;20068;-74
2022/02/06 04:37:34;;;;;;;5.78;1.55;;;;;;;5.17;77.96;99919.59;5070367;28;20542;-74
2022/02/06 04:40:11;;;;;;;6.53;2.08;;;;;;;5.22;78.01;99925.75;5068233;28;20044;-75
2022/02/06 04:43:01;;;;;;;8.07;1.58;;;;;;;5.26;78.05;99924.88;5067037;28;20055;-75
2022/02/06 04:46:00;;;;;;;6.65;1.15;;;;;;;5.22;77.62;99917.88;5069321;28;20416;-75
2022/02/06 04:48:48;;;;;;;7.57;1.60;;;;;;;5.25;77.68;99920.50;5070605;28;20421;-74
2022/02/06 04:51:39;;;;;;;4.78;1.13;;;;;;;5.31;77.18;99897.88;5071226;28;20076;-74
2022/02/06 05:13:48;;;;;;;6.05;1.40;;;;;;;5.55;76.35;99863.06;5071018;28;20043;-74
2022/02/06 05:15:59;;;;;;;3.78;1.02;;;;;;;5.61;75.91;99863.13;5069903;28;20036;-73
2022/02/06 05:23:47;;;;;;;4.82;0.95;;;;;;;5.62;74.91;99873.56;5055506;28;20036;-74
2022/02/06 05:26:37;;;;;;;4.47;1.13;;;;;;;5.68;75.32;99857.00;5069161;28;20036;-74
2022/02/06 05:29:51;;;;;;;9.35;1.70;;;;;;;5.78;74.85;99842.19;5073789;28;20036;-74
2022/02/06 05:34:16;;;;;;;3.63;0.80;;;;;;;5.71;74.13;99860.53;5055340;28;20043;-74
2022/02/06 05:36:41;;;;;;;4.85;1.00;;;;;;;5.78;74.08;99832.59;5073212;28;20036;-74
2022/02/06 05:39:06;;;;;;;4.60;0.95;;;;;;;5.81;74.26;99832.59;5073625;28;20544;-73
2022/02/06 05:41:32;;;;;;;7.75;1.40;;;;;;;5.78;74.03;99829.09;5073084;28;20498;-74
2022/02/06 05:43:57;;;;;;;4.38;1.17;;;;;;;5.84;73.84;99816.91;5073166;28;20503;-74
2022/02/06 05:46:23;;;;;;;4.88;1.00;;;;;;;5.87;73.86;99810.81;5073098;28;20067;-74
2022/02/06 05:48:48;;;;;;;2.80;0.85;;;;;;;5.87;74.08;99814.28;5073396;28;20041;-73
2022/02/06 05:51:14;;;;;;;4.03;1.10;;;;;;;5.90;73.95;99813.44;5073230;28;20496;-73
2022/02/06 05:53:40;;;;;;;4.95;1.00;;;;;;;5.90;74.39;99811.69;5055009;28;20408;-73
2022/02/06 05:56:05;;;;;;;6.63;1.02;;;;;;;5.85;74.32;99804.69;5068501;28;20095;-73
2022/02/06 05:58:31;;;;;;;4.90;0.93;;;;;;;5.88;74.56;99794.22;5055108;28;20507;-73
2022/02/06 06:00:56;;;;;;;4.47;1.13;;;;;;;5.87;73.97;99806.44;5055218;28;20021;-73
2022/02/06 06:03:22;;;;;;;4.80;0.95;;;;;;;5.89;74.36;99803.81;5072878;28;20492;-74
2022/02/06 06:05:47;;;;;;;5.30;0.90;;;;;;;5.82;74.32;99802.06;5072728;28;20086;-74
2022/02/06 06:08:12;;;;;;;4.97;0.88;;;;;;;5.84;74.81;99797.69;5072633;28;20064;-73
2022/02/06 06:10:38;;;;;;;5.30;1.13;;;;;;;5.77;74.68;99799.44;5072876;28;20041;-74
2022/02/06 06:13:03;;;;;;;2.35;0.82;;;;;;;5.76;75.11;99796.81;5055112;28;20396;-74
2022/02/06 06:15:30;;;;;;;6.43;0.88;;;;;;;5.76;75.21;99791.56;5072532;28;20058;-74
2022/02/06 06:17:56;;;;;;;4.28;0.55;;;;;;;5.69;75.73;99791.56;5072732;28;20032;-74
2022/02/06 06:20:25;;;;;;;2.72;0.60;;;;;;;5.76;75.73;99796.81;5071816;28;20041;-74
2022/02/06 06:22:52;;;;;;;3.22;0.60;;;;;;;5.74;75.80;99777.59;5072404;28;20024;-74
2022/02/06 06:25:18;;;;;;;2.70;0.70;;;;;;;5.75;75.37;99780.22;5068696;28;20040;-74
2022/02/06 06:27:43;;;;;;;3.05;0.60;;;;;;;5.68;75.58;99771.47;5068753;28;20036;-74
2022/02/06 06:30:09;;;;;;;3.75;0.80;;;;;;;5.69;76.19;99765.38;5072097;28;20036;-73
2022/02/06 06:32:34;;;;;;;4.05;1.13;;;;;;;5.72;76.54;99775.84;5072509;28;20112;-73
2022/02/06 06:35:03;;;;;;;2.92;0.70;;;;;;;5.70;76.53;99767.13;5067950;28;20118;-74
2022/02/06 06:37:28;;;;;;;1.90;0.50;;;;;;;5.66;77.31;99765.38;5071433;28;20040;-74
2022/02/06 06:39:53;;;;;;;3.47;0.68;;;;;;;5.64;77.86;99761.88;5072204;28;20032;-74
2022/02/06 06:42:19;;;;;;;4.03;0.85;;;;;;;5.64;77.16;99759.28;5072093;28;20051;-74
2022/02/06 06:44:44;;;;;;;3.00;0.90;;;;;;;5.60;77.71;99754.88;5071752;28;20068;-73
2022/02/06 06:47:10;;;;;;;3.50;0.75;;;;;;;5.63;77.75;99749.69;5072029;28;20115;-73
2022/02/06 06:49:36;;;;;;;1.50;0.60;;;;;;;5.64;77.47;99751.41;5072631;28;20032;-75
2022/02/06 06:52:03;;;;;;;3.55;0.63;;;;;;;5.75;77.27;99753.19;5071457;28;20111;-75
2022/02/06 06:54:39;;;;;;;3.78;0.70;;;;;;;5.68;77.53;99753.16;5071612;28;20039;-74
2022/02/06 06:57:21;;;;;;;4.32;0.70;;;;;;;5.72;76.99;99743.56;5066751;28;20043;-73
2022/02/06 07:02:19;;;;;;;3.90;0.50;;;;;;;5.77;77.28;99740.97;5071655;28;20070;-74
2022/02/06 07:04:46;;;;;;;4.25;0.80;;;;;;;5.76;77.50;99744.44;5071134;28;20067;-75
2022/02/06 07:07:12;;;;;;;2.80;0.80;;;;;;;5.76;77.79;99734.84;5050913;28;20040;-74
2022/02/06 07:09:38;;;;;;;3.50;0.70;;;;;;;5.80;78.03;99739.22;5068499;28;20044;-74
2022/02/06 07:12:07;;;;;;;2.97;0.65;;;;;;;5.76;78.06;99741.81;5071766;28;20055;-74
2022/02/06 07:14:32;;;;;;;2.97;0.80;;;;;;;5.80;77.90;99736.59;5067468;28;20480;-74
2022/02/06 07:16:58;;;;;;;3.33;0.65;;;;;;;5.80;77.74;99723.50;5071261;28;20086;-74
2022/02/06 07:19:23;;;;;;;2.22;0.60;;;;;;;5.75;78.24;99727.00;5071294;28;20028;-75
2022/02/06 07:21:48;;;;;;;2.30;0.50;;;;;;;5.75;78.75;99737.47;5070820;28;20032;-75
2022/02/06 07:24:15;;;;;;;4.15;0.80;;;;;;;5.69;79.03;99727.88;5070385;28;20043;-75
2022/02/06 07:26:42;;;;;;;3.40;0.93;;;;;;;5.72;78.82;99738.34;5059038;28;20036;-74
2022/02/06 07:29:10;;;;;;;3.13;0.65;;;;;;;5.76;78.91;99728.72;5071179;28;20071;-74
2022/02/06 07:31:41;;;;;;;4.93;0.60;;;;;;;5.74;79.23;99707.81;5070485;28;20043;-74
2022/02/06 07:34:06;;;;;;;4.60;0.68;;;;;;;5.75;78.98;99706.06;5067579;28;20060;-74
2022/02/06 07:36:31;;;;;;;3.00;0.70;;;;;;;5.77;78.87;99714.78;5052046;28;20134;-74
2022/02/06 07:38:57;;;;;;;5.15;0.85;;;;;;;5.71;79.65;99708.66;5071419;28;20052;-74
2022/02/06 07:41:22;;;;;;;2.72;0.80;;;;;;;5.82;79.39;99713.03;5071095;28;20500;-74
2022/02/06 07:43:47;;;;;;;3.22;0.63;;;;;;;5.87;79.26;99709.53;5071044;28;20522;-74
2022/02/06 07:46:17;;;;;;;2.13;1.10;;;;;;;5.88;78.55;99707.78;5070596;28;20071;-74
2022/02/06 07:48:43;;;;;;;2.40;0.80;;;;;;;5.85;78.70;99684.22;5071026;28;20064;-74
2022/02/06 07:51:08;;;;;;;3.72;0.98;;;;;;;5.89;78.63;99696.44;5070830;28;20083;-74
2022/02/06 07:53:33;;;;;;;2.85;0.77;;;;;;;5.96;78.03;99685.13;5067020;28;20060;-74
2022/02/06 07:55:58;;;;;;;4.95;1.10;;;;;;;6.06;76.91;99688.59;5066819;28;20080;-73
2022/02/06 07:58:24;;;;;;;3.63;0.90;;;;;;;6.14;77.73;99685.09;5070902;28;20063;-74
2022/02/06 08:00:49;;;;;;;4.20;1.20;;;;;;;6.20;77.25;99670.22;5070655;28;20028;-74
2022/02/06 08:03:14;;;;;;;8.35;1.10;;;;;;;6.27;76.25;99678.06;5070654;28;20059;-73
2022/02/06 08:05:40;;;;;;;4.63;1.00;;;;;;;6.37;75.87;99676.31;5070546;28;20036;-74
2022/02/06 08:08:13;;;;;;;3.75;0.93;;;;;;;6.34;76.19;99671.97;5070496;28;20037;-73
2022/02/06 08:10:38;;;;;;;4.43;0.77;;;;;;;6.51;75.52;99679.75;5070753;28;20063;-73
2022/02/06 08:13:09;;;;;;;5.32;1.50;;;;;;;6.62;75.42;99658.72;5070825;28;20137;-74
2022/02/06 08:15:35;;;;;;;4.43;1.05;;;;;;;6.66;74.95;99657.00;5070440;28;20036;-74
2022/02/06 08:18:01;;;;;;;5.25;1.00;;;;;;;6.73;74.58;99633.38;5052989;28;20507;-74
2022/02/06 08:20:26;;;;;;;3.97;0.90;;;;;;;6.74;73.97;99635.09;5065063;28;20025;-73
2022/02/06 08:22:54;;;;;;;5.93;1.08;;;;;;;6.78;73.62;99646.44;5074551;28;20089;-73
2022/02/06 08:25:20;;;;;;;5.70;1.45;;;;;;;6.86;73.57;99641.16;5074346;28;20480;-73
2022/02/06 08:27:45;;;;;;;3.42;0.93;;;;;;;6.79;74.00;99628.06;5070612;28;20089;-73
2022/02/06 08:30:13;;;;;;;5.07;1.20;;;;;;;6.83;73.51;99628.91;5074497;28;20045;-73
2022/02/06 08:32:39;;;;;;;3.75;1.00;;;;;;;6.92;73.13;99633.25;5074221;28;20040;-73
2022/02/06 08:35:08;;;;;;;2.95;0.93;;;;;;;6.96;73.75;99622.72;5074140;28;20037;-74
2022/02/06 08:37:35;;;;;;;5.05;1.25;;;;;;;6.99;73.16;99614.81;5074273;28;20059;-73
2022/02/06 08:40:06;;;;;;;6.28;1.65;;;;;;;7.02;72.80;99606.97;5073423;28;20052;-73
2022/02/06 08:42:31;;;;;;;3.33;1.60;;;;;;;7.11;72.28;99607.78;5072246;28;20047;-73
2022/02/06 08:44:56;;;;;;;3.53;0.85;;;;;;;7.24;71.85;99619.94;5072447;28;20036;-74
2022/02/06 08:47:22;;;;;;;3.47;1.10;;;;;;;7.28;71.42;99603.25;5072495;28;20078;-74
2022/02/06 08:49:47;;;;;;;4.00;0.90;;;;;;;7.36;71.56;99606.72;5072498;28;20036;-75
2022/02/06 08:52:13;;;;;;;3.85;1.08;;;;;;;7.46;71.17;99604.88;5072940;28;20033;-73
2022/02/06 08:54:39;;;;;;;4.18;0.80;;;;;;;7.42;70.60;99606.66;5073658;28;20242;-73
2022/02/06 08:57:23;;;;;;;5.72;0.95;;;;;;;7.51;70.31;99607.47;5072875;28;20450;-73
2022/02/06 08:59:49;;;;;;;2.88;0.75;;;;;;;7.50;69.97;99589.97;5071003;28;20051;-74
2022/02/06 09:02:15;;;;;;;4.75;0.85;;;;;;;7.49;70.03;99603.97;5082079;28;20384;-74
2022/02/06 09:04:40;;;;;;;3.10;1.00;;;;;;;7.42;69.79;99590.03;5077966;28;20028;-74
2022/02/06 09:07:05;;;;;;;4.05;0.65;;;;;;;7.49;69.55;99598.72;5073730;28;20063;-74
2022/02/06 09:09:32;;;;;;;3.85;0.80;;;;;;;7.44;69.59;99604.00;5075878;28;20029;-74
2022/02/06 09:11:59;;;;;;;3.10;0.88;;;;;;;7.45;69.66;99596.13;5073781;28;20044;-73
2022/02/06 09:14:25;;;;;;;3.00;0.98;;;;;;;7.51;69.33;99596.97;5070367;28;20036;-74
2022/02/06 09:16:51;;;;;;;2.65;0.93;;;;;;;7.46;69.29;99595.22;5055646;28;20112;-74
2022/02/06 09:19:17;;;;;;;2.35;0.68;;;;;;;7.61;68.71;99583.72;5074859;28;20100;-75
2022/02/06 09:21:44;;;;;;;2.38;0.82;;;;;;;7.69;69.13;99581.91;5073724;28;20028;-74
2022/02/06 09:24:10;;;;;;;3.38;0.90;;;;;;;7.74;67.47;99573.97;5069201;28;20115;-74
2022/02/06 09:26:37;;;;;;;4.15;1.35;;;;;;;7.79;68.16;99597.59;5055655;28;20613;-74
2022/02/06 09:29:03;;;;;;;4.65;0.90;;;;;;;7.76;67.99;99577.47;5073484;28;20047;-74
2022/02/06 09:31:29;;;;;;;3.30;0.90;;;;;;;7.87;67.56;99575.59;5063533;28;20557;-74
2022/02/06 09:36:20;;;;;;;2.22;0.77;;;;;;;7.85;66.78;99593.13;5057128;28;20032;-74
2022/02/06 09:38:46;;;;;;;3.17;0.63;;;;;;;7.99;67.57;99552.69;5072784;28;20037;-74
2022/02/06 09:41:11;;;;;;;2.47;0.60;;;;;;;8.08;67.05;99557.88;5073303;28;20032;-75
2022/02/06 09:43:38;;;;;;;4.35;1.10;;;;;;;8.14;66.88;99552.53;5063505;28;20101;-74
2022/02/06 09:46:04;;;;;;;2.40;0.85;;;;;;;8.19;66.59;99540.19;5072519;28;20036;-74
2022/02/06 09:48:30;;;;;;;3.42;1.00;;;;;;;8.33;66.54;99534.75;5074361;28;20111;-75
2022/02/06 09:50:57;;;;;;;2.30;0.63;;;;;;;8.34;66.00;99540.00;5055317;28;20548;-74
2022/02/06 09:53:22;;;;;;;3.45;0.90;;;;;;;8.44;66.04;99525.03;5072562;28;20039;-74
2022/02/06 09:55:48;;;;;;;4.50;1.00;;;;;;;8.42;65.42;99529.44;5069726;28;20552;-74
2022/02/06 09:58:39;;;;;;;3.03;1.00;;;;;;;8.51;65.82;99533.69;5066374;28;20111;-74
2022/02/06 10:01:01;;;;;;;3.80;0.60;;;;;;;8.49;65.26;99524.97;5066142;28;20032;-74
2022/02/06 10:03:27;;;;;;;4.93;1.30;;;;;;;8.46;65.95;99532.88;5072796;28;20094;-74
2022/02/06 10:05:53;;;;;;;2.40;0.88;;;;;;;8.74;65.83;99522.84;5075786;28;20037;-75
2022/02/06 10:08:39;;;;;;;2.50;0.90;;;;;;;8.76;64.73;99515.81;5072507;28;20032;-74
2022/02/06 10:11:12;;;;;;;5.53;1.25;;;;;;;8.73;65.23;99494.81;5072746;28;20145;-74
2022/02/06 10:13:39;;;;;;;3.63;1.08;;;;;;;8.77;64.51;99494.72;5054775;28;20045;-75
2022/02/06 10:16:06;;;;;;;2.05;0.88;;;;;;;8.82;65.03;99494.66;5072268;28;20036;-75
2022/02/06 10:18:31;;;;;;;2.38;0.70;;;;;;;8.81;64.37;99486.81;5068710;28;20041;-75
2022/02/06 10:20:57;;;;;;;1.98;0.70;;;;;;;8.71;64.75;99481.66;5072564;28;20029;-74
2022/02/06 10:23:37;;;;;;;2.42;0.70;;;;;;;8.69;65.37;99462.41;5072256;28;20064;-74
2022/02/06 10:26:08;;;;;;;2.80;0.90;;;;;;;8.91;66.10;99473.47;5065209;28;20072;-74
2022/02/06 10:28:43;;;;;;;2.70;0.77;;;;;;;8.74;64.63;99478.97;5072042;28;20094;-75
2022/02/06 10:31:09;;;;;;;2.90;0.70;;;;;;;8.75;65.63;99449.16;5071716;28;20576;-75
2022/02/06 10:33:53;;;;;;;1.90;0.80;;;;;;;9.02;65.26;99449.59;5073977;28;20396;-75
2022/02/06 10:36:36;;;;;;;2.60;0.65;;;;;;;9.01;63.56;99437.31;5074463;28;20480;-75
2022/02/06 10:39:11;;;;;;;5.15;1.20;;;;;;;8.99;63.82;99441.75;5068513;28;20040;-74
2022/02/06 10:41:47;;;;;;;4.20;0.73;;;;;;;8.92;63.22;99435.72;5072053;28;20043;-74
2022/02/06 10:44:13;;;;;;;2.08;0.70;;;;;;;8.97;63.95;99425.13;5069061;28;20028;-74
2022/02/06 10:46:58;;;;;;;2.38;0.70;;;;;;;9.25;63.61;99440.41;5071917;28;20230;-74
2022/02/06 10:49:24;;;;;;;3.30;0.68;;;;;;;9.08;62.91;99422.31;5069923;28;20124;-74
2022/02/06 10:52:01;;;;;;;3.22;0.63;;;;;;;9.08;62.25;99407.38;5053237;28;20559;-74
2022/02/06 10:54:29;;;;;;;2.10;0.90;;;;;;;9.20;62.20;99395.78;5064511;28;20047;-75
2022/02/06 10:57:06;;;;;;;1.73;0.40;;;;;;;9.17;62.89;99396.69;5069067;28;20036;-75
2022/02/06 10:59:49;;;;;;;2.08;0.60;;;;;;;9.17;61.44;99401.09;5067085;28;20036;-74
2022/02/06 11:02:23;;;;;;;2.22;0.80;;;;;;;9.33;61.84;99389.38;5065699;28;20048;-74
2022/02/06 11:05:02;;;;;;;2.05;0.68;;;;;;;9.42;61.08;99383.91;5066802;28;20080;-75
2022/02/06 11:07:28;;;;;;;2.78;0.60;;;;;;;9.47;60.82;99368.03;5069021;28;20048;-74
2022/02/06 11:10:11;;;;;;;1.63;0.52;;;;;;;9.60;61.12;99358.97;5071224;28;20033;-75
2022/02/06 11:12:39;;;;;;;2.05;0.75;;;;;;;9.61;60.70;99365.97;5051439;28;20101;-75
2022/02/06 11:15:19;;;;;;;1.77;0.63;;;;;;;9.56;60.75;99361.69;5071148;28;20086;-75
2022/02/06 11:18:01;;;;;;;2.47;0.60;;;;;;;9.54;60.39;99348.56;5069370;28;20545;-74
2022/02/06 11:20:27;;;;;;;4.18;0.80;;;;;;;9.52;60.54;99349.50;5064987;28;20516;-74
2022/02/06 11:22:53;;;;;;;2.50;0.60;;;;;;;9.47;60.31;99367.16;5070782;28;20101;-74
2022/02/06 11:25:19;;;;;;;2.47;0.65;;;;;;;9.48;59.78;99337.28;5070066;28;20131;-74
2022/02/06 11:27:45;;;;;;;4.68;0.52;;;;;;;9.68;60.78;99316.66;5069455;28;20123;-74
2022/02/06 11:30:10;;;;;;;1.98;0.47;;;;;;;9.78;60.89;99309.41;5057941;28;20578;-74
2022/02/06 11:32:37;;;;;;;2.40;0.70;;;;;;;9.78;59.54;99304.16;5069883;28;20029;-74
2022/02/06 11:35:11;;;;;;;3.13;1.13;;;;;;;9.83;60.33;99297.00;5069655;28;20024;-74
2022/02/06 11:46:07;;;;;;;2.40;0.60;;;;;;;9.59;60.39;99282.63;5074965;28;20510;-74
2022/02/06 11:48:34;;;;;;;3.45;0.70;;;;;;;9.57;60.13;99268.63;5081533;28;20032;-74
2022/02/06 11:51:00;;;;;;;3.95;0.63;;;;;;;9.61;60.20;99286.94;5080364;28;20470;-74
2022/02/06 11:53:33;;;;;;;2.22;0.60;;;;;;;9.46;60.50;99273.22;5077311;28;20185;-75
2022/02/06 11:55:58;;;;;;;2.83;0.52;;;;;;;9.57;60.79;99261.56;5083483;28;20090;-74
2022/02/06 11:58:27;;;;;;;3.95;0.73;;;;;;;9.44;59.70;99250.44;5080815;28;20446;-74
2022/02/06 12:01:05;;;;;;;2.28;0.70;;;;;;;9.48;60.32;99253.00;5046298;28;20024;-75
2022/02/06 12:03:56;;;;;;;1.95;0.50;;;;;;;9.48;59.70;99251.22;5076748;28;20462;-75
2022/02/06 12:06:24;;;;;;;2.10;0.60;;;;;;;9.35;59.99;99247.13;5067474;28;20037;-75
2022/02/06 12:08:59;;;;;;;1.83;0.50;;;;;;;9.32;60.61;99258.59;5070274;28;20040;-75
2022/02/06 12:11:25;;;;;;;1.85;0.40;;;;;;;9.35;62.15;99221.69;5070707;28;20482;-75
2022/02/06 12:14:11;;;;;;;1.10;0.40;;;;;;;9.09;63.77;99222.25;5070932;28;20032;-75
2022/02/06 12:16:44;;;;;;;3.10;0.80;;;;;;;9.06;63.90;99224.91;5067540;28;20040;-74
2022/02/06 12:19:30;;;;;;;1.63;0.45;;;;;;;8.84;64.75;99199.97;5070771;28;20040;-74
2022/02/06 12:21:56;;;;;;;4.95;0.80;;;;;;;8.56;66.57;99201.38;5051335;28;20036;-74
2022/02/06 12:24:42;;;;;;;2.13;0.73;;;;;;;8.41;67.96;99203.41;5070197;28;20043;-74
2022/02/06 12:27:24;;;;;;;4.28;0.60;;;;;;;8.24;67.93;99180.03;5066677;28;20043;-74
2022/02/06 12:29:56;;;;;;;2.50;0.60;;;;;;;8.14;67.89;99179.34;5070611;28;20141;-75
2022/02/06 12:32:32;;;;;;;2.10;0.70;;;;;;;8.12;68.08;99175.88;5069786;28;20040;-74
2022/02/06 12:37:42;;;;;;;2.25;0.50;;;;;;;8.14;66.45;99174.09;5070483;28;20075;-74
2022/02/06 12:40:14;;;;;;;2.60;0.50;;;;;;;8.18;66.48;99167.03;5052153;28;20068;-74
2022/02/06 12:42:46;;;;;;;1.38;0.52;;;;;;;8.09;65.61;99173.28;5067692;28;20127;-74
2022/02/06 12:45:17;;;;;;;1.77;0.47;;;;;;;8.14;65.22;99150.44;5070207;28;20040;-74
2022/02/06 12:47:48;;;;;;;1.58;0.50;;;;;;;8.19;64.93;99140.69;5067002;28;20438;-74
2022/02/06 12:50:32;;;;;;;1.75;0.45;;;;;;;8.26;64.88;99141.47;5070295;28;20056;-74
2022/02/06 12:52:59;;;;;;;1.30;0.60;;;;;;;8.27;64.28;99114.28;5050288;28;20033;-74
2022/02/06 12:55:29;;;;;;;2.05;1.13;;;;;;;8.28;64.39;99119.50;5051852;28;20036;-73
2022/02/06 12:57:55;;;;;;;1.33;0.30;;;;;;;8.25;64.25;99119.59;5066154;28;20032;-75
2022/02/06 13:00:28;;;;;;;2.05;0.60;;;;;;;8.40;63.88;99102.66;5068289;28;20024;-74
2022/02/06 13:03:20;;;;;;;1.35;0.40;;;;;;;8.37;64.70;99092.16;5069293;28;20040;-74
2022/02/06 13:06:00;;;;;;;2.40;0.63;;;;;;;8.35;64.75;99079.03;5071598;28;20511;-74
2022/02/06 13:08:26;;;;;;;1.23;0.38;;;;;;;8.43;64.53;99072.81;5073698;28;20040;-75
2022/02/06 13:11:00;;;;;;;1.95;0.40;;;;;;;8.45;63.97;99063.13;5073779;28;20044;-72
2022/02/06 13:13:33;;;;;;;1.17;0.47;;;;;;;8.51;64.04;99044.59;5073637;28;20044;-72
2022/02/06 13:16:09;;;;;;;0.63;0.15;;;;;;;8.56;64.19;99050.59;5073239;28;20082;-72
2022/02/06 13:21:46;;;;;;;1.25;0.43;;;;;;;8.60;63.82;99033.88;5070424;28;20627;-73
2022/02/06 13:24:11;;;;;;;1.17;0.50;;;;;;;8.51;64.27;99028.81;5069371;28;20138;-73
2022/02/06 13:29:59;;;;;;;1.17;0.43;;;;;;;8.51;64.27;99007.78;5055727;28;20504;-73
2022/02/06 13:35:33;;;;;;;1.60;0.60;;;;;;;8.47;64.76;98982.47;5042155;28;20053;-73
2022/02/06 13:38:08;;;;;;;2.65;0.70;;;;;;;8.49;64.97;98967.53;5072657;28;20037;-73
2022/02/06 13:40:44;;;;;;;3.30;0.80;;;;;;;8.58;64.81;98959.41;5073087;28;20124;-73
2022/02/06 13:43:16;;;;;;;2.13;0.80;;;;;;;8.68;64.35;98958.28;5073388;28;20115;-73
2022/02/06 13:45:42;;;;;;;4.88;0.80;;;;;;;8.54;64.67;98949.84;5073011;28;20040;-73
2022/02/06 13:48:08;;;;;;;2.25;0.80;;;;;;;8.54;64.92;98941.97;5073159;28;20107;-73
2022/02/06 13:50:40;;;;;;;1.27;0.45;;;;;;;8.42;64.56;98926.50;5073120;28;20089;-73